sensor_id;sensor_type;location;lat;lon;timestamp;P1;durP1;ratioP1;P2;durP2;ratioP2
36989;SDS011;22898;52.102;5.776;2024-01-11T00:01:02;8.82;;;4.55;;
36989;SDS011;22898;52.102;5.776;2024-01-11T00:03:28;9.02;;;3.92;;
36989;SDS011;22898;52.102;5.776;2024-01-11T00:05:54;12.68;;;4.38;;
36989;SDS011;22898;52.102;5.776;2024-01-11T00:08:19;7.43;;;3.97;;
36989;SDS011;22898;52.102;5.776;2024-01-11T00:10:45;6.13;;;4.07;;
36989;SDS011;22898;52.102;5.776;2024-01-11T00:13:11;9.80;;;4.40;;
36989;SDS011;22898;52.102;5.776;2024-01-11T00:15:36;9.30;;;3.38;;
36989;SDS011;22898;52.102;5.776;2024-01-11T00:18:02;7.30;;;3.60;;
36989;SDS011;22898;52.102;5.776;2024-01-11T00:20:28;8.32;;;3.65;;
36989;SDS011;22898;52.102;5.776;2024-01-11T00:22:54;10.07;;;3.65;;
36989;SDS011;22898;52.102;5.776;2024-01-11T00:25:19;6.82;;;3.58;;
36989;SDS011;22898;52.102;5.776;2024-01-11T00:27:45;7.43;;;4.55;;
36989;SDS011;22898;52.102;5.776;2024-01-11T00:30:11;9.95;;;3.97;;
36989;SDS011;22898;52.102;5.776;2024-01-11T00:32:36;7.57;;;3.47;;
36989;SDS011;22898;52.102;5.776;2024-01-11T00:35:02;7.65;;;3.63;;
36989;SDS011;22898;52.102;5.776;2024-01-11T00:37:28;6.38;;;3.85;;
36989;SDS011;22898;52.102;5.776;2024-01-11T00:39:53;7.70;;;2.90;;
36989;SDS011;22898;52.102;5.776;2024-01-11T00:42:19;11.18;;;3.75;;
36989;SDS011;22898;52.102;5.776;2024-01-11T00:44:45;8.82;;;4.00;;
36989;SDS011;22898;52.102;5.776;2024-01-11T00:47:10;7.53;;;3.38;;
36989;SDS011;22898;52.102;5.776;2024-01-11T00:49:36;6.10;;;2.42;;
36989;SDS011;22898;52.102;5.776;2024-01-11T00:52:02;6.85;;;3.38;;
36989;SDS011;22898;52.102;5.776;2024-01-11T00:54:28;5.63;;;4.20;;
36989;SDS011;22898;52.102;5.776;2024-01-11T00:56:53;6.32;;;2.88;;
36989;SDS011;22898;52.102;5.776;2024-01-11T00:59:19;5.32;;;3.13;;
36989;SDS011;22898;52.102;5.776;2024-01-11T01:01:48;4.68;;;2.40;;
36989;SDS011;22898;52.102;5.776;2024-01-11T01:04:14;6.65;;;3.78;;
36989;SDS011;22898;52.102;5.776;2024-01-11T01:06:40;4.40;;;3.28;;
36989;SDS011;22898;52.102;5.776;2024-01-11T01:09:07;6.00;;;3.00;;
36989;SDS011;22898;52.102;5.776;2024-01-11T01:11:33;6.47;;;3.53;;
36989;SDS011;22898;52.102;5.776;2024-01-11T01:13:59;5.05;;;3.08;;
36989;SDS011;22898;52.102;5.776;2024-01-11T01:16:24;8.27;;;4.47;;
36989;SDS011;22898;52.102;5.776;2024-01-11T01:18:50;12.70;;;4.15;;
36989;SDS011;22898;52.102;5.776;2024-01-11T01:21:15;8.13;;;3.30;;
36989;SDS011;22898;52.102;5.776;2024-01-11T01:23:41;10.30;;;3.22;;
36989;SDS011;22898;52.102;5.776;2024-01-11T01:26:07;5.13;;;3.38;;
36989;SDS011;22898;52.102;5.776;2024-01-11T01:28:32;11.80;;;3.92;;
36989;SDS011;22898;52.102;5.776;2024-01-11T01:30:58;7.00;;;3.28;;
36989;SDS011;22898;52.102;5.776;2024-01-11T01:33:24;4.60;;;3.03;;
36989;SDS011;22898;52.102;5.776;2024-01-11T01:35:49;8.82;;;3.80;;
36989;SDS011;22898;52.102;5.776;2024-01-11T01:38:15;12.30;;;3.78;;
36989;SDS011;22898;52.102;5.776;2024-01-11T01:40:42;6.35;;;3.90;;
36989;SDS011;22898;52.102;5.776;2024-01-11T01:43:09;8.10;;;3.53;;
36989;SDS011;22898;52.102;5.776;2024-01-11T01:45:35;8.75;;;3.50;;
36989;SDS011;22898;52.102;5.776;2024-01-11T01:48:01;6.60;;;3.30;;
36989;SDS011;22898;52.102;5.776;2024-01-11T01:50:27;5.78;;;2.92;;
36989;SDS011;22898;52.102;5.776;2024-01-11T01:52:54;5.10;;;3.50;;
36989;SDS011;22898;52.102;5.776;2024-01-11T01:55:20;5.53;;;3.75;;
36989;SDS011;22898;52.102;5.776;2024-01-11T01:57:47;7.60;;;3.90;;
36989;SDS011;22898;52.102;5.776;2024-01-11T02:00:15;5.18;;;2.83;;
36989;SDS011;22898;52.102;5.776;2024-01-11T02:02:42;6.35;;;3.20;;
36989;SDS011;22898;52.102;5.776;2024-01-11T02:05:09;9.70;;;3.90;;
36989;SDS011;22898;52.102;5.776;2024-01-11T02:07:36;6.07;;;3.28;;
36989;SDS011;22898;52.102;5.776;2024-01-11T02:10:02;8.65;;;3.88;;
36989;SDS011;22898;52.102;5.776;2024-01-11T02:12:28;11.32;;;3.75;;
36989;SDS011;22898;52.102;5.776;2024-01-11T02:14:54;5.78;;;3.08;;
36989;SDS011;22898;52.102;5.776;2024-01-11T02:17:20;8.05;;;2.70;;
36989;SDS011;22898;52.102;5.776;2024-01-11T02:19:46;8.02;;;4.25;;
36989;SDS011;22898;52.102;5.776;2024-01-11T02:22:12;6.93;;;4.20;;
36989;SDS011;22898;52.102;5.776;2024-01-11T02:24:46;7.60;;;2.33;;
36989;SDS011;22898;52.102;5.776;2024-01-11T02:27:11;5.80;;;2.78;;
36989;SDS011;22898;52.102;5.776;2024-01-11T02:29:37;9.32;;;3.22;;
36989;SDS011;22898;52.102;5.776;2024-01-11T02:32:03;7.63;;;3.17;;
36989;SDS011;22898;52.102;5.776;2024-01-11T02:34:30;4.00;;;2.35;;
36989;SDS011;22898;52.102;5.776;2024-01-11T02:36:56;4.57;;;2.97;;
36989;SDS011;22898;52.102;5.776;2024-01-11T02:39:22;6.82;;;2.70;;
36989;SDS011;22898;52.102;5.776;2024-01-11T02:41:49;8.23;;;2.97;;
36989;SDS011;22898;52.102;5.776;2024-01-11T02:44:16;7.05;;;3.60;;
36989;SDS011;22898;52.102;5.776;2024-01-11T02:46:42;7.18;;;3.78;;
36989;SDS011;22898;52.102;5.776;2024-01-11T02:49:07;10.55;;;5.50;;
36989;SDS011;22898;52.102;5.776;2024-01-11T02:51:33;3.88;;;2.55;;
36989;SDS011;22898;52.102;5.776;2024-01-11T02:53:59;5.40;;;3.70;;
36989;SDS011;22898;52.102;5.776;2024-01-11T02:56:25;4.40;;;3.83;;
36989;SDS011;22898;52.102;5.776;2024-01-11T02:58:51;7.22;;;3.22;;
36989;SDS011;22898;52.102;5.776;2024-01-11T03:01:16;6.18;;;2.50;;
36989;SDS011;22898;52.102;5.776;2024-01-11T03:03:42;4.53;;;2.70;;
36989;SDS011;22898;52.102;5.776;2024-01-11T03:06:08;6.63;;;4.03;;
36989;SDS011;22898;52.102;5.776;2024-01-11T03:08:33;9.68;;;3.55;;
36989;SDS011;22898;52.102;5.776;2024-01-11T03:11:00;3.97;;;2.65;;
36989;SDS011;22898;52.102;5.776;2024-01-11T03:13:26;4.63;;;3.13;;
36989;SDS011;22898;52.102;5.776;2024-01-11T03:15:52;4.28;;;2.50;;
36989;SDS011;22898;52.102;5.776;2024-01-11T03:18:17;4.30;;;2.88;;
36989;SDS011;22898;52.102;5.776;2024-01-11T03:20:43;2.30;;;2.10;;
36989;SDS011;22898;52.102;5.776;2024-01-11T03:23:09;4.95;;;3.28;;
36989;SDS011;22898;52.102;5.776;2024-01-11T03:25:35;4.22;;;3.63;;
36989;SDS011;22898;52.102;5.776;2024-01-11T03:28:00;7.60;;;3.35;;
36989;SDS011;22898;52.102;5.776;2024-01-11T03:30:26;2.90;;;2.45;;
36989;SDS011;22898;52.102;5.776;2024-01-11T03:32:53;2.97;;;2.53;;
36989;SDS011;22898;52.102;5.776;2024-01-11T03:35:18;7.22;;;3.05;;
36989;SDS011;22898;52.102;5.776;2024-01-11T03:37:45;2.78;;;2.17;;
36989;SDS011;22898;52.102;5.776;2024-01-11T03:40:10;2.75;;;1.75;;
36989;SDS011;22898;52.102;5.776;2024-01-11T03:42:36;5.90;;;3.67;;
36989;SDS011;22898;52.102;5.776;2024-01-11T03:45:03;3.75;;;2.25;;
36989;SDS011;22898;52.102;5.776;2024-01-11T03:47:29;3.58;;;2.40;;
36989;SDS011;22898;52.102;5.776;2024-01-11T03:49:55;3.90;;;2.53;;
36989;SDS011;22898;52.102;5.776;2024-01-11T03:52:21;5.47;;;3.60;;
36989;SDS011;22898;52.102;5.776;2024-01-11T03:54:47;7.95;;;3.83;;
36989;SDS011;22898;52.102;5.776;2024-01-11T03:57:13;8.25;;;4.90;;
36989;SDS011;22898;52.102;5.776;2024-01-11T03:59:39;16.83;;;3.40;;
36989;SDS011;22898;52.102;5.776;2024-01-11T04:02:05;4.95;;;3.03;;
36989;SDS011;22898;52.102;5.776;2024-01-11T04:04:32;6.13;;;3.40;;
36989;SDS011;22898;52.102;5.776;2024-01-11T04:06:58;7.65;;;4.03;;
36989;SDS011;22898;52.102;5.776;2024-01-11T04:09:23;3.35;;;2.22;;
36989;SDS011;22898;52.102;5.776;2024-01-11T04:11:49;4.70;;;2.47;;
36989;SDS011;22898;52.102;5.776;2024-01-11T04:14:15;7.35;;;3.20;;
36989;SDS011;22898;52.102;5.776;2024-01-11T04:16:43;7.07;;;3.40;;
36989;SDS011;22898;52.102;5.776;2024-01-11T04:19:09;6.95;;;4.07;;
36989;SDS011;22898;52.102;5.776;2024-01-11T04:21:35;6.38;;;2.67;;
36989;SDS011;22898;52.102;5.776;2024-01-11T04:24:03;10.88;;;4.68;;
36989;SDS011;22898;52.102;5.776;2024-01-11T04:26:30;3.78;;;2.53;;
36989;SDS011;22898;52.102;5.776;2024-01-11T04:28:56;12.60;;;4.18;;
36989;SDS011;22898;52.102;5.776;2024-01-11T04:31:24;6.93;;;3.38;;
36989;SDS011;22898;52.102;5.776;2024-01-11T04:33:51;5.43;;;3.85;;
36989;SDS011;22898;52.102;5.776;2024-01-11T04:36:16;4.05;;;3.17;;
36989;SDS011;22898;52.102;5.776;2024-01-11T04:38:42;9.32;;;3.42;;
36989;SDS011;22898;52.102;5.776;2024-01-11T04:41:09;7.18;;;3.35;;
36989;SDS011;22898;52.102;5.776;2024-01-11T04:43:39;11.15;;;4.97;;
36989;SDS011;22898;52.102;5.776;2024-01-11T04:46:19;7.88;;;3.95;;
36989;SDS011;22898;52.102;5.776;2024-01-11T04:48:46;10.73;;;4.65;;
36989;SDS011;22898;52.102;5.776;2024-01-11T04:51:12;5.20;;;3.05;;
36989;SDS011;22898;52.102;5.776;2024-01-11T04:53:38;4.93;;;3.47;;
36989;SDS011;22898;52.102;5.776;2024-01-11T04:56:08;5.35;;;3.47;;
36989;SDS011;22898;52.102;5.776;2024-01-11T04:58:35;6.13;;;3.85;;
36989;SDS011;22898;52.102;5.776;2024-01-11T05:01:04;5.55;;;4.15;;
36989;SDS011;22898;52.102;5.776;2024-01-11T05:03:31;9.55;;;3.42;;
36989;SDS011;22898;52.102;5.776;2024-01-11T05:05:57;4.90;;;2.63;;
36989;SDS011;22898;52.102;5.776;2024-01-11T05:08:23;5.88;;;2.40;;
36989;SDS011;22898;52.102;5.776;2024-01-11T05:10:50;7.07;;;3.97;;
36989;SDS011;22898;52.102;5.776;2024-01-11T05:13:17;5.97;;;4.07;;
36989;SDS011;22898;52.102;5.776;2024-01-11T05:15:43;6.45;;;4.20;;
36989;SDS011;22898;52.102;5.776;2024-01-11T05:18:09;6.13;;;3.88;;
36989;SDS011;22898;52.102;5.776;2024-01-11T05:20:35;7.15;;;3.72;;
36989;SDS011;22898;52.102;5.776;2024-01-11T05:23:01;7.07;;;5.05;;
36989;SDS011;22898;52.102;5.776;2024-01-11T05:25:27;12.40;;;4.00;;
36989;SDS011;22898;52.102;5.776;2024-01-11T05:27:52;8.25;;;3.88;;
36989;SDS011;22898;52.102;5.776;2024-01-11T05:30:18;6.10;;;3.95;;
36989;SDS011;22898;52.102;5.776;2024-01-11T05:32:44;11.25;;;4.43;;
36989;SDS011;22898;52.102;5.776;2024-01-11T05:35:09;7.43;;;4.85;;
36989;SDS011;22898;52.102;5.776;2024-01-11T05:37:35;12.25;;;5.57;;
36989;SDS011;22898;52.102;5.776;2024-01-11T05:40:01;5.80;;;3.80;;
36989;SDS011;22898;52.102;5.776;2024-01-11T05:42:27;8.43;;;4.32;;
36989;SDS011;22898;52.102;5.776;2024-01-11T05:44:53;11.10;;;4.03;;
36989;SDS011;22898;52.102;5.776;2024-01-11T05:47:19;17.52;;;5.72;;
36989;SDS011;22898;52.102;5.776;2024-01-11T05:49:44;12.20;;;5.68;;
36989;SDS011;22898;52.102;5.776;2024-01-11T05:52:10;18.80;;;5.18;;
36989;SDS011;22898;52.102;5.776;2024-01-11T05:54:36;10.23;;;4.63;;
36989;SDS011;22898;52.102;5.776;2024-01-11T05:57:02;11.50;;;5.60;;
36989;SDS011;22898;52.102;5.776;2024-01-11T05:59:27;7.28;;;3.38;;
36989;SDS011;22898;52.102;5.776;2024-01-11T06:01:53;7.13;;;3.03;;
36989;SDS011;22898;52.102;5.776;2024-01-11T06:04:19;6.15;;;3.70;;
36989;SDS011;22898;52.102;5.776;2024-01-11T06:06:44;10.18;;;4.55;;
36989;SDS011;22898;52.102;5.776;2024-01-11T06:09:10;8.25;;;3.30;;
36989;SDS011;22898;52.102;5.776;2024-01-11T06:11:36;4.78;;;2.67;;
36989;SDS011;22898;52.102;5.776;2024-01-11T06:14:01;8.18;;;5.28;;
36989;SDS011;22898;52.102;5.776;2024-01-11T06:16:28;5.32;;;3.65;;
36989;SDS011;22898;52.102;5.776;2024-01-11T06:18:54;7.97;;;4.47;;
36989;SDS011;22898;52.102;5.776;2024-01-11T06:21:20;8.02;;;3.95;;
36989;SDS011;22898;52.102;5.776;2024-01-11T06:23:45;7.50;;;4.13;;
36989;SDS011;22898;52.102;5.776;2024-01-11T06:26:11;4.78;;;2.70;;
36989;SDS011;22898;52.102;5.776;2024-01-11T06:28:37;5.28;;;2.50;;
36989;SDS011;22898;52.102;5.776;2024-01-11T06:31:02;5.88;;;4.32;;
36989;SDS011;22898;52.102;5.776;2024-01-11T06:33:28;6.47;;;5.10;;
36989;SDS011;22898;52.102;5.776;2024-01-11T06:35:54;9.05;;;3.85;;
36989;SDS011;22898;52.102;5.776;2024-01-11T06:38:21;7.85;;;3.72;;
36989;SDS011;22898;52.102;5.776;2024-01-11T06:40:47;8.15;;;4.80;;
36989;SDS011;22898;52.102;5.776;2024-01-11T06:43:14;6.70;;;4.47;;
36989;SDS011;22898;52.102;5.776;2024-01-11T06:45:40;6.85;;;4.55;;
36989;SDS011;22898;52.102;5.776;2024-01-11T06:48:07;5.78;;;3.92;;
36989;SDS011;22898;52.102;5.776;2024-01-11T06:50:33;7.18;;;4.90;;
36989;SDS011;22898;52.102;5.776;2024-01-11T06:52:59;5.53;;;3.67;;
36989;SDS011;22898;52.102;5.776;2024-01-11T06:55:26;6.05;;;4.00;;
36989;SDS011;22898;52.102;5.776;2024-01-11T06:57:52;6.65;;;4.22;;
36989;SDS011;22898;52.102;5.776;2024-01-11T07:00:18;5.20;;;3.10;;
36989;SDS011;22898;52.102;5.776;2024-01-11T07:02:44;6.45;;;3.45;;
36989;SDS011;22898;52.102;5.776;2024-01-11T07:05:09;11.43;;;4.70;;
36989;SDS011;22898;52.102;5.776;2024-01-11T07:07:35;10.43;;;4.82;;
36989;SDS011;22898;52.102;5.776;2024-01-11T07:10:01;6.72;;;4.30;;
36989;SDS011;22898;52.102;5.776;2024-01-11T07:12:26;9.88;;;4.85;;
36989;SDS011;22898;52.102;5.776;2024-01-11T07:14:52;16.88;;;6.60;;
36989;SDS011;22898;52.102;5.776;2024-01-11T07:17:18;7.28;;;4.45;;
36989;SDS011;22898;52.102;5.776;2024-01-11T07:19:43;7.47;;;4.13;;
36989;SDS011;22898;52.102;5.776;2024-01-11T07:22:09;5.65;;;3.55;;
36989;SDS011;22898;52.102;5.776;2024-01-11T07:24:35;6.70;;;4.30;;
36989;SDS011;22898;52.102;5.776;2024-01-11T07:27:06;12.88;;;5.15;;
36989;SDS011;22898;52.102;5.776;2024-01-11T07:29:35;9.93;;;4.22;;
36989;SDS011;22898;52.102;5.776;2024-01-11T07:32:01;8.98;;;5.07;;
36989;SDS011;22898;52.102;5.776;2024-01-11T07:34:28;7.65;;;4.93;;
36989;SDS011;22898;52.102;5.776;2024-01-11T07:36:54;10.32;;;6.10;;
36989;SDS011;22898;52.102;5.776;2024-01-11T07:39:20;12.15;;;5.55;;
36989;SDS011;22898;52.102;5.776;2024-01-11T07:41:47;12.07;;;5.43;;
36989;SDS011;22898;52.102;5.776;2024-01-11T07:44:13;6.50;;;4.55;;
36989;SDS011;22898;52.102;5.776;2024-01-11T07:46:38;8.43;;;4.18;;
36989;SDS011;22898;52.102;5.776;2024-01-11T07:49:04;5.72;;;3.55;;
36989;SDS011;22898;52.102;5.776;2024-01-11T07:51:30;7.93;;;3.35;;
36989;SDS011;22898;52.102;5.776;2024-01-11T07:53:56;9.63;;;5.70;;
36989;SDS011;22898;52.102;5.776;2024-01-11T07:56:21;8.52;;;4.38;;
36989;SDS011;22898;52.102;5.776;2024-01-11T07:58:47;6.70;;;4.20;;
36989;SDS011;22898;52.102;5.776;2024-01-11T08:01:13;12.85;;;4.43;;
36989;SDS011;22898;52.102;5.776;2024-01-11T08:03:41;11.55;;;5.55;;
36989;SDS011;22898;52.102;5.776;2024-01-11T08:06:09;7.32;;;3.72;;
36989;SDS011;22898;52.102;5.776;2024-01-11T08:08:36;7.80;;;4.97;;
36989;SDS011;22898;52.102;5.776;2024-01-11T08:11:04;10.27;;;4.78;;
36989;SDS011;22898;52.102;5.776;2024-01-11T08:13:31;10.07;;;5.75;;
36989;SDS011;22898;52.102;5.776;2024-01-11T08:15:58;7.43;;;5.05;;
36989;SDS011;22898;52.102;5.776;2024-01-11T08:18:26;9.02;;;5.22;;
36989;SDS011;22898;52.102;5.776;2024-01-11T08:20:52;9.30;;;6.60;;
36989;SDS011;22898;52.102;5.776;2024-01-11T08:23:17;7.70;;;5.10;;
36989;SDS011;22898;52.102;5.776;2024-01-11T08:25:43;9.20;;;5.82;;
36989;SDS011;22898;52.102;5.776;2024-01-11T08:28:09;9.48;;;5.72;;
36989;SDS011;22898;52.102;5.776;2024-01-11T08:30:35;9.75;;;5.70;;
36989;SDS011;22898;52.102;5.776;2024-01-11T08:33:01;13.23;;;6.32;;
36989;SDS011;22898;52.102;5.776;2024-01-11T08:35:28;8.18;;;5.57;;
36989;SDS011;22898;52.102;5.776;2024-01-11T08:37:54;7.78;;;4.43;;
36989;SDS011;22898;52.102;5.776;2024-01-11T08:40:20;11.63;;;4.53;;
36989;SDS011;22898;52.102;5.776;2024-01-11T08:42:46;11.70;;;6.75;;
36989;SDS011;22898;52.102;5.776;2024-01-11T08:45:12;9.77;;;6.22;;
36989;SDS011;22898;52.102;5.776;2024-01-11T08:47:43;14.90;;;5.07;;
36989;SDS011;22898;52.102;5.776;2024-01-11T08:50:12;8.48;;;5.43;;
36989;SDS011;22898;52.102;5.776;2024-01-11T08:52:41;10.45;;;6.50;;
36989;SDS011;22898;52.102;5.776;2024-01-11T08:55:07;13.10;;;5.85;;
36989;SDS011;22898;52.102;5.776;2024-01-11T08:57:33;13.05;;;6.57;;
36989;SDS011;22898;52.102;5.776;2024-01-11T09:00:01;18.48;;;10.88;;
36989;SDS011;22898;52.102;5.776;2024-01-11T09:02:27;14.55;;;7.63;;
36989;SDS011;22898;52.102;5.776;2024-01-11T09:04:53;18.92;;;8.95;;
36989;SDS011;22898;52.102;5.776;2024-01-11T09:07:18;9.57;;;5.95;;
36989;SDS011;22898;52.102;5.776;2024-01-11T09:09:44;11.65;;;6.90;;
36989;SDS011;22898;52.102;5.776;2024-01-11T09:12:10;15.95;;;6.65;;
36989;SDS011;22898;52.102;5.776;2024-01-11T09:14:36;12.35;;;5.82;;
36989;SDS011;22898;52.102;5.776;2024-01-11T09:17:02;10.75;;;5.97;;
36989;SDS011;22898;52.102;5.776;2024-01-11T09:19:31;12.50;;;7.50;;
36989;SDS011;22898;52.102;5.776;2024-01-11T09:22:00;16.75;;;8.02;;
36989;SDS011;22898;52.102;5.776;2024-01-11T09:24:26;14.95;;;7.20;;
36989;SDS011;22898;52.102;5.776;2024-01-11T09:26:51;12.95;;;7.60;;
36989;SDS011;22898;52.102;5.776;2024-01-11T09:29:17;15.88;;;7.80;;
36989;SDS011;22898;52.102;5.776;2024-01-11T09:31:42;13.27;;;7.50;;
36989;SDS011;22898;52.102;5.776;2024-01-11T09:34:08;15.77;;;7.57;;
36989;SDS011;22898;52.102;5.776;2024-01-11T09:36:34;14.40;;;6.22;;
36989;SDS011;22898;52.102;5.776;2024-01-11T09:39:03;21.50;;;9.70;;
36989;SDS011;22898;52.102;5.776;2024-01-11T09:41:30;20.23;;;7.88;;
36989;SDS011;22898;52.102;5.776;2024-01-11T09:43:57;11.77;;;6.63;;
36989;SDS011;22898;52.102;5.776;2024-01-11T09:46:26;14.05;;;6.70;;
36989;SDS011;22898;52.102;5.776;2024-01-11T09:48:53;9.02;;;5.10;;
36989;SDS011;22898;52.102;5.776;2024-01-11T09:51:20;16.50;;;6.35;;
36989;SDS011;22898;52.102;5.776;2024-01-11T09:53:46;10.90;;;5.60;;
36989;SDS011;22898;52.102;5.776;2024-01-11T09:56:16;9.73;;;5.22;;
36989;SDS011;22898;52.102;5.776;2024-01-11T09:58:42;10.77;;;5.47;;
36989;SDS011;22898;52.102;5.776;2024-01-11T10:01:13;14.27;;;4.95;;
36989;SDS011;22898;52.102;5.776;2024-01-11T10:03:39;11.45;;;4.80;;
36989;SDS011;22898;52.102;5.776;2024-01-11T10:06:08;18.38;;;6.47;;
36989;SDS011;22898;52.102;5.776;2024-01-11T10:08:35;16.02;;;7.00;;
36989;SDS011;22898;52.102;5.776;2024-01-11T10:11:02;10.98;;;5.85;;
36989;SDS011;22898;52.102;5.776;2024-01-11T10:13:28;12.85;;;6.13;;
36989;SDS011;22898;52.102;5.776;2024-01-11T10:16:29;20.35;;;5.57;;
36989;SDS011;22898;52.102;5.776;2024-01-11T10:18:47;19.70;;;5.78;;
36989;SDS011;22898;52.102;5.776;2024-01-11T10:21:13;15.05;;;6.63;;
36989;SDS011;22898;52.102;5.776;2024-01-11T10:23:39;14.05;;;5.07;;
36989;SDS011;22898;52.102;5.776;2024-01-11T10:26:05;13.20;;;5.32;;
36989;SDS011;22898;52.102;5.776;2024-01-11T10:28:32;12.40;;;5.28;;
36989;SDS011;22898;52.102;5.776;2024-01-11T10:31:02;13.90;;;5.65;;
36989;SDS011;22898;52.102;5.776;2024-01-11T10:33:32;15.63;;;6.35;;
36989;SDS011;22898;52.102;5.776;2024-01-11T10:35:58;16.23;;;6.35;;
36989;SDS011;22898;52.102;5.776;2024-01-11T10:38:25;10.63;;;5.00;;
36989;SDS011;22898;52.102;5.776;2024-01-11T10:40:51;12.75;;;5.43;;
36989;SDS011;22898;52.102;5.776;2024-01-11T10:43:21;12.45;;;5.60;;
36989;SDS011;22898;52.102;5.776;2024-01-11T10:45:50;14.40;;;6.82;;
36989;SDS011;22898;52.102;5.776;2024-01-11T10:48:19;17.35;;;4.57;;
36989;SDS011;22898;52.102;5.776;2024-01-11T10:50:49;20.40;;;6.55;;
36989;SDS011;22898;52.102;5.776;2024-01-11T10:53:31;9.27;;;4.45;;
36989;SDS011;22898;52.102;5.776;2024-01-11T10:56:01;11.23;;;5.13;;
36989;SDS011;22898;52.102;5.776;2024-01-11T10:58:29;15.13;;;5.18;;
36989;SDS011;22898;52.102;5.776;2024-01-11T11:00:56;18.55;;;5.75;;
36989;SDS011;22898;52.102;5.776;2024-01-11T11:03:24;17.95;;;7.15;;
36989;SDS011;22898;52.102;5.776;2024-01-11T11:05:54;19.00;;;5.53;;
36989;SDS011;22898;52.102;5.776;2024-01-11T11:08:23;16.83;;;5.93;;
36989;SDS011;22898;52.102;5.776;2024-01-11T11:10:51;23.33;;;6.85;;
36989;SDS011;22898;52.102;5.776;2024-01-11T11:13:23;16.75;;;6.90;;
36989;SDS011;22898;52.102;5.776;2024-01-11T11:15:50;16.40;;;6.22;;
36989;SDS011;22898;52.102;5.776;2024-01-11T11:18:16;10.80;;;5.28;;
36989;SDS011;22898;52.102;5.776;2024-01-11T11:20:43;14.82;;;6.18;;
36989;SDS011;22898;52.102;5.776;2024-01-11T11:23:11;13.07;;;4.72;;
36989;SDS011;22898;52.102;5.776;2024-01-11T11:25:39;20.88;;;5.97;;
36989;SDS011;22898;52.102;5.776;2024-01-11T11:28:06;20.20;;;7.55;;
36989;SDS011;22898;52.102;5.776;2024-01-11T11:30:32;14.60;;;6.30;;
36989;SDS011;22898;52.102;5.776;2024-01-11T11:33:11;14.32;;;6.60;;
36989;SDS011;22898;52.102;5.776;2024-01-11T11:35:48;24.55;;;7.60;;
36989;SDS011;22898;52.102;5.776;2024-01-11T11:38:22;16.08;;;7.05;;
36989;SDS011;22898;52.102;5.776;2024-01-11T11:40:50;19.58;;;7.45;;
36989;SDS011;22898;52.102;5.776;2024-01-11T11:43:17;13.10;;;5.07;;
36989;SDS011;22898;52.102;5.776;2024-01-11T11:45:45;15.93;;;5.43;;
36989;SDS011;22898;52.102;5.776;2024-01-11T11:51:10;14.68;;;5.68;;
36989;SDS011;22898;52.102;5.776;2024-01-11T11:53:37;14.50;;;6.10;;
36989;SDS011;22898;52.102;5.776;2024-01-11T11:56:04;13.32;;;6.00;;
36989;SDS011;22898;52.102;5.776;2024-01-11T11:58:32;15.95;;;5.78;;
36989;SDS011;22898;52.102;5.776;2024-01-11T12:00:58;16.67;;;5.78;;
36989;SDS011;22898;52.102;5.776;2024-01-11T12:03:29;15.45;;;5.93;;
36989;SDS011;22898;52.102;5.776;2024-01-11T12:05:57;21.17;;;7.78;;
36989;SDS011;22898;52.102;5.776;2024-01-11T12:08:23;16.33;;;6.47;;
36989;SDS011;22898;52.102;5.776;2024-01-11T12:10:49;18.35;;;7.15;;
36989;SDS011;22898;52.102;5.776;2024-01-11T12:13:15;14.10;;;5.80;;
36989;SDS011;22898;52.102;5.776;2024-01-11T12:15:41;11.73;;;5.32;;
36989;SDS011;22898;52.102;5.776;2024-01-11T12:18:08;16.92;;;7.47;;
36989;SDS011;22898;52.102;5.776;2024-01-11T12:20:33;12.95;;;5.72;;
36989;SDS011;22898;52.102;5.776;2024-01-11T12:23:00;17.48;;;6.78;;
36989;SDS011;22898;52.102;5.776;2024-01-11T12:25:27;16.90;;;6.35;;
36989;SDS011;22898;52.102;5.776;2024-01-11T12:27:53;18.67;;;7.80;;
36989;SDS011;22898;52.102;5.776;2024-01-11T12:30:26;18.65;;;6.35;;
36989;SDS011;22898;52.102;5.776;2024-01-11T12:32:53;14.35;;;5.75;;
36989;SDS011;22898;52.102;5.776;2024-01-11T12:35:20;13.77;;;5.97;;
36989;SDS011;22898;52.102;5.776;2024-01-11T12:40:23;11.77;;;5.43;;
36989;SDS011;22898;52.102;5.776;2024-01-11T12:42:49;17.13;;;6.13;;
36989;SDS011;22898;52.102;5.776;2024-01-11T12:45:15;15.75;;;5.68;;
36989;SDS011;22898;52.102;5.776;2024-01-11T12:47:42;12.35;;;5.63;;
36989;SDS011;22898;52.102;5.776;2024-01-11T12:50:09;16.20;;;5.85;;
36989;SDS011;22898;52.102;5.776;2024-01-11T12:52:37;16.38;;;6.65;;
36989;SDS011;22898;52.102;5.776;2024-01-11T12:55:03;19.48;;;6.28;;
36989;SDS011;22898;52.102;5.776;2024-01-11T12:57:30;16.27;;;5.80;;
36989;SDS011;22898;52.102;5.776;2024-01-11T12:59:55;26.55;;;8.63;;
36989;SDS011;22898;52.102;5.776;2024-01-11T13:02:41;17.42;;;6.35;;
36989;SDS011;22898;52.102;5.776;2024-01-11T13:05:09;20.92;;;6.40;;
36989;SDS011;22898;52.102;5.776;2024-01-11T13:07:36;19.85;;;6.55;;
36989;SDS011;22898;52.102;5.776;2024-01-11T13:10:02;16.00;;;7.65;;
36989;SDS011;22898;52.102;5.776;2024-01-11T13:12:29;17.42;;;6.93;;
36989;SDS011;22898;52.102;5.776;2024-01-11T13:14:54;14.63;;;6.90;;
36989;SDS011;22898;52.102;5.776;2024-01-11T13:17:21;16.98;;;7.25;;
36989;SDS011;22898;52.102;5.776;2024-01-11T13:19:46;18.48;;;7.82;;
36989;SDS011;22898;52.102;5.776;2024-01-11T13:22:12;20.95;;;7.93;;
36989;SDS011;22898;52.102;5.776;2024-01-11T13:24:38;14.95;;;6.15;;
36989;SDS011;22898;52.102;5.776;2024-01-11T13:27:04;12.93;;;5.93;;
36989;SDS011;22898;52.102;5.776;2024-01-11T13:29:29;14.68;;;5.50;;
36989;SDS011;22898;52.102;5.776;2024-01-11T13:31:55;14.40;;;6.03;;
36989;SDS011;22898;52.102;5.776;2024-01-11T13:34:21;17.48;;;7.75;;
36989;SDS011;22898;52.102;5.776;2024-01-11T13:36:46;13.52;;;5.72;;
36989;SDS011;22898;52.102;5.776;2024-01-11T13:39:12;14.40;;;6.50;;
36989;SDS011;22898;52.102;5.776;2024-01-11T13:41:38;14.98;;;6.68;;
36989;SDS011;22898;52.102;5.776;2024-01-11T13:44:05;16.00;;;5.80;;
36989;SDS011;22898;52.102;5.776;2024-01-11T13:46:32;16.17;;;6.97;;
36989;SDS011;22898;52.102;5.776;2024-01-11T13:48:58;13.25;;;5.65;;
36989;SDS011;22898;52.102;5.776;2024-01-11T13:51:23;17.02;;;5.90;;
36989;SDS011;22898;52.102;5.776;2024-01-11T13:53:49;11.95;;;4.95;;
36989;SDS011;22898;52.102;5.776;2024-01-11T13:56:15;14.50;;;6.20;;
36989;SDS011;22898;52.102;5.776;2024-01-11T13:58:41;11.15;;;4.90;;
36989;SDS011;22898;52.102;5.776;2024-01-11T14:01:06;13.90;;;6.07;;
36989;SDS011;22898;52.102;5.776;2024-01-11T14:03:32;16.58;;;5.88;;
36989;SDS011;22898;52.102;5.776;2024-01-11T14:05:58;15.73;;;5.65;;
36989;SDS011;22898;52.102;5.776;2024-01-11T14:08:25;10.45;;;5.20;;
36989;SDS011;22898;52.102;5.776;2024-01-11T14:10:51;15.45;;;5.53;;
36989;SDS011;22898;52.102;5.776;2024-01-11T14:13:17;15.93;;;5.45;;
36989;SDS011;22898;52.102;5.776;2024-01-11T14:15:42;15.68;;;6.75;;
36989;SDS011;22898;52.102;5.776;2024-01-11T14:18:08;13.48;;;5.75;;
36989;SDS011;22898;52.102;5.776;2024-01-11T14:20:34;16.85;;;6.40;;
36989;SDS011;22898;52.102;5.776;2024-01-11T14:23:00;18.00;;;5.63;;
36989;SDS011;22898;52.102;5.776;2024-01-11T14:25:26;10.85;;;5.15;;
36989;SDS011;22898;52.102;5.776;2024-01-11T14:27:52;14.02;;;5.72;;
36989;SDS011;22898;52.102;5.776;2024-01-11T14:30:21;11.20;;;5.05;;
36989;SDS011;22898;52.102;5.776;2024-01-11T14:32:50;15.32;;;6.50;;
36989;SDS011;22898;52.102;5.776;2024-01-11T14:35:15;14.52;;;5.88;;
36989;SDS011;22898;52.102;5.776;2024-01-11T14:37:42;15.40;;;6.55;;
36989;SDS011;22898;52.102;5.776;2024-01-11T14:40:10;11.35;;;6.30;;
36989;SDS011;22898;52.102;5.776;2024-01-11T14:42:36;10.98;;;5.35;;